Time;durP1;ratioP1;P1;durP2;ratioP2;P2;SDS_P1;SDS_P2;PMS_P1;PMS_P2;Temp;Humidity;BMP_temperature;BMP_pressure;BME280_temperature;BME280_humidity;BME280_pressure;Samples;Min_cycle;Max_cycle;Signal;HPM_P1;HPM_P2
2021/10/11 00:00:35;;;;;;;164.55;82.10;;;8.10;99.90;;;;;;5096431;28;20389;-66
2021/10/11 00:03:01;;;;;;;175.48;89.32;;;8.10;99.90;;;;;;5096333;28;20466;-66
2021/10/11 00:05:27;;;;;;;171.18;86.03;;;8.10;99.90;;;;;;5095118;28;20466;-66
2021/10/11 00:07:52;;;;;;;158.32;79.63;;;8.20;99.90;;;;;;5096263;28;20040;-66
2021/10/11 00:10:19;;;;;;;171.13;83.70;;;8.20;99.90;;;;;;5096169;28;20024;-66
2021/10/11 00:12:48;;;;;;;164.50;81.57;;;8.20;99.90;;;;;;5096203;28;20458;-66
2021/10/11 00:15:14;;;;;;;152.27;80.32;;;8.20;99.90;;;;;;5096430;28;20024;-66
2021/10/11 00:17:40;;;;;;;151.35;78.50;;;8.20;99.90;;;;;;5096102;28;20032;-66
2021/10/11 00:20:06;;;;;;;161.30;81.53;;;8.20;99.90;;;;;;5096029;28;20028;-66
2021/10/11 00:22:31;;;;;;;179.57;86.40;;;8.20;99.90;;;;;;5095713;28;20028;-66
2021/10/11 00:24:57;;;;;;;165.23;85.35;;;8.30;99.90;;;;;;5096209;28;20039;-66
2021/10/11 00:27:22;;;;;;;174.70;88.32;;;8.40;99.90;;;;;;5096154;28;20101;-66
2021/10/11 00:29:48;;;;;;;174.82;89.57;;;8.50;99.90;;;;;;5095464;28;20044;-66
2021/10/11 00:32:14;;;;;;;167.52;89.45;;;8.60;99.90;;;;;;5095099;28;20024;-66
2021/10/11 00:34:39;;;;;;;168.90;90.10;;;8.70;99.90;;;;;;5095728;28;20013;-66
2021/10/11 00:37:05;;;;;;;168.50;87.70;;;8.70;99.90;;;;;;5095987;28;20062;-66
2021/10/11 00:39:31;;;;;;;165.02;85.75;;;8.80;99.90;;;;;;5095619;28;20074;-66
2021/10/11 00:41:57;;;;;;;160.20;83.93;;;8.80;99.90;;;;;;5095622;28;20028;-66
2021/10/11 00:44:22;;;;;;;156.73;82.45;;;8.80;99.90;;;;;;5095866;28;20071;-66
2021/10/11 00:46:48;;;;;;;156.77;82.60;;;8.80;99.90;;;;;;5094654;28;20122;-66
2021/10/11 00:49:13;;;;;;;151.45;80.10;;;8.80;99.90;;;;;;5095719;28;20023;-66
2021/10/11 00:51:39;;;;;;;143.40;80.15;;;8.90;99.90;;;;;;5095245;28;20032;-66
2021/10/11 00:54:06;;;;;;;149.50;78.60;;;8.90;99.90;;;;;;5093431;28;20028;-66
2021/10/11 00:56:32;;;;;;;143.23;77.03;;;8.90;99.90;;;;;;5095590;28;20480;-66
2021/10/11 00:58:57;;;;;;;141.13;77.13;;;8.90;99.90;;;;;;5095548;28;20024;-66
2021/10/11 01:01:23;;;;;;;150.35;78.80;;;8.90;99.90;;;;;;5095229;28;20032;-66
2021/10/11 01:03:49;;;;;;;137.88;74.38;;;9.00;99.90;;;;;;5095506;28;20527;-66
2021/10/11 01:06:15;;;;;;;145.85;76.60;;;9.00;99.90;;;;;;5095392;28;20051;-66
2021/10/11 01:08:41;;;;;;;142.50;76.55;;;9.00;99.90;;;;;;5095297;28;20070;-66
2021/10/11 01:11:07;;;;;;;137.63;73.65;;;9.00;99.90;;;;;;5095063;28;20033;-66
2021/10/11 01:13:32;;;;;;;138.27;74.10;;;9.10;99.90;;;;;;5095256;28;20028;-66
2021/10/11 01:15:58;;;;;;;134.85;72.43;;;9.10;99.90;;;;;;5094930;28;20103;-66
2021/10/11 01:18:23;;;;;;;132.00;72.22;;;9.10;99.90;;;;;;5094923;28;20028;-66
2021/10/11 01:20:50;;;;;;;137.00;70.60;;;9.10;99.90;;;;;;5094853;28;20020;-66
2021/10/11 01:23:16;;;;;;;135.77;75.38;;;9.20;99.90;;;;;;5095096;28;20111;-66
2021/10/11 01:25:41;;;;;;;132.85;71.63;;;9.20;99.90;;;;;;5094738;28;20116;-66
2021/10/11 01:28:07;;;;;;;137.75;73.78;;;9.30;99.90;;;;;;5094718;28;20020;-66
2021/10/11 01:30:33;;;;;;;134.40;73.35;;;9.30;99.90;;;;;;5094976;28;20071;-66
2021/10/11 01:32:59;;;;;;;138.43;74.05;;;9.30;99.90;;;;;;5094644;28;20051;-66
2021/10/11 01:35:24;;;;;;;144.52;75.38;;;9.40;99.90;;;;;;5094932;28;20024;-66
2021/10/11 01:37:50;;;;;;;140.88;73.85;;;9.40;99.90;;;;;;5094553;28;20028;-66
2021/10/11 01:40:17;;;;;;;143.93;74.45;;;9.50;99.90;;;;;;5094256;28;20028;-66
2021/10/11 01:42:43;;;;;;;150.75;78.75;;;9.60;99.90;;;;;;5094800;28;20028;-66
2021/10/11 01:45:10;;;;;;;148.70;79.75;;;9.60;99.90;;;;;;5094769;28;20035;-66
2021/10/11 01:47:35;;;;;;;152.75;80.32;;;9.60;99.90;;;;;;5094427;28;20036;-66
2021/10/11 01:50:01;;;;;;;161.75;82.65;;;9.60;99.90;;;;;;5092795;28;20031;-66
2021/10/11 01:52:27;;;;;;;162.25;85.63;;;9.60;99.90;;;;;;5094584;28;20031;-66
2021/10/11 01:54:52;;;;;;;163.40;85.57;;;9.60;99.90;;;;;;5094276;28;20024;-66
2021/10/11 01:57:19;;;;;;;176.93;90.68;;;9.60;99.90;;;;;;5094293;28;20107;-66
2021/10/11 01:59:44;;;;;;;167.02;85.88;;;9.70;99.90;;;;;;5094742;28;20028;-66
2021/10/11 02:02:10;;;;;;;182.70;89.35;;;9.70;99.90;;;;;;5094438;28;20541;-66
2021/10/11 02:04:35;;;;;;;174.85;91.18;;;9.70;99.90;;;;;;5092686;28;20058;-66
2021/10/11 02:07:01;;;;;;;172.38;88.45;;;9.80;99.90;;;;;;5094377;28;20032;-66
2021/10/11 02:09:27;;;;;;;175.73;91.22;;;9.80;99.90;;;;;;5094278;28;20028;-66
2021/10/11 02:11:53;;;;;;;185.55;95.75;;;9.80;99.90;;;;;;5094030;28;20055;-65
2021/10/11 02:14:18;;;;;;;186.13;95.40;;;9.80;99.90;;;;;;5093991;28;20110;-66
2021/10/11 02:16:44;;;;;;;186.63;92.35;;;9.80;99.90;;;;;;5094242;28;20091;-66
2021/10/11 02:19:10;;;;;;;185.20;94.13;;;9.80;99.90;;;;;;5093966;28;20392;-66
2021/10/11 02:21:35;;;;;;;191.35;95.63;;;9.90;99.90;;;;;;5093891;28;20096;-66
2021/10/11 02:24:01;;;;;;;204.00;96.78;;;9.80;99.90;;;;;;5094159;28;20024;-66
2021/10/11 02:26:26;;;;;;;192.63;98.05;;;9.90;99.90;;;;;;5093873;28;20432;-66
2021/10/11 02:28:52;;;;;;;189.82;94.82;;;9.90;99.90;;;;;;5093529;28;20100;-66
2021/10/11 02:31:18;;;;;;;193.90;96.40;;;9.90;99.90;;;;;;5092297;28;20017;-66
2021/10/11 02:33:44;;;;;;;189.23;95.20;;;9.90;99.90;;;;;;5094083;28;20024;-66
2021/10/11 02:36:11;;;;;;;199.75;95.82;;;9.90;99.90;;;;;;5093841;28;20035;-66
2021/10/11 02:38:47;;;;;;;191.27;94.88;;;9.90;99.90;;;;;;5093794;28;20020;-66
2021/10/11 02:41:13;;;;;;;198.48;96.65;;;10.00;99.90;;;;;;5093981;28;20039;-66
2021/10/11 02:43:38;;;;;;;203.20;98.82;;;10.00;99.90;;;;;;5093973;28;20024;-66
2021/10/11 02:46:04;;;;;;;201.10;99.50;;;10.00;99.90;;;;;;5093921;28;20064;-66
2021/10/11 02:48:29;;;;;;;193.90;99.70;;;10.00;99.90;;;;;;5093577;28;20142;-65
2021/10/11 02:50:55;;;;;;;205.98;100.38;;;10.00;99.90;;;;;;5093654;28;20050;-66
2021/10/11 02:53:20;;;;;;;203.98;101.18;;;10.00;99.90;;;;;;5093863;28;20107;-66
2021/10/11 02:55:46;;;;;;;211.68;100.28;;;10.10;99.90;;;;;;5093609;28;20028;-66
2021/10/11 02:58:11;;;;;;;199.65;97.60;;;10.10;99.90;;;;;;5093816;28;20024;-66
2021/10/11 03:00:37;;;;;;;212.15;100.07;;;10.00;99.90;;;;;;5093529;28;20028;-66
2021/10/11 03:03:03;;;;;;;219.15;103.78;;;10.00;99.90;;;;;;5093503;28;20109;-66
2021/10/11 03:05:29;;;;;;;207.52;101.72;;;10.10;99.90;;;;;;5093561;28;20020;-66
2021/10/11 03:07:54;;;;;;;221.70;104.25;;;10.10;99.90;;;;;;5093147;28;20091;-66
2021/10/11 03:10:20;;;;;;;255.73;113.47;;;10.10;99.90;;;;;;5093606;28;20114;-66
2021/10/11 03:12:45;;;;;;;239.65;107.78;;;10.10;99.90;;;;;;5093421;28;20027;-66
2021/10/11 03:15:11;;;;;;;258.33;111.50;;;10.20;99.90;;;;;;5093802;28;20034;-66
2021/10/11 03:17:36;;;;;;;267.85;109.75;;;10.20;99.90;;;;;;5097256;28;20060;-66
2021/10/11 03:20:03;;;;;;;257.92;108.05;;;10.30;99.90;;;;;;5097456;28;20081;-66
2021/10/11 03:22:29;;;;;;;263.80;106.55;;;10.40;99.90;;;;;;5097503;28;20031;-66
2021/10/11 03:24:54;;;;;;;260.63;104.97;;;10.50;99.90;;;;;;5097362;28;20515;-66
2021/10/11 03:27:20;;;;;;;256.75;100.57;;;10.60;99.90;;;;;;5095938;28;20082;-66
2021/10/11 03:29:45;;;;;;;236.63;96.07;;;10.60;99.90;;;;;;5095643;28;20040;-66
2021/10/11 03:32:11;;;;;;;242.07;96.80;;;10.60;99.90;;;;;;5097282;28;20536;-66
2021/10/11 03:34:37;;;;;;;240.02;94.18;;;10.70;99.90;;;;;;5096966;28;20020;-66
2021/10/11 03:37:02;;;;;;;265.23;108.45;;;10.70;99.90;;;;;;5096870;28;20078;-66
2021/10/11 03:39:28;;;;;;;214.93;87.20;;;10.70;99.90;;;;;;5096847;28;20055;-66
2021/10/11 03:41:53;;;;;;;221.65;88.57;;;10.70;99.90;;;;;;5095935;28;20032;-66
2021/10/11 03:44:19;;;;;;;205.77;82.97;;;10.80;99.90;;;;;;5096814;28;20020;-66
2021/10/11 03:46:44;;;;;;;202.52;82.38;;;10.80;99.90;;;;;;5096687;28;20024;-66
2021/10/11 03:49:10;;;;;;;192.73;80.95;;;10.80;99.90;;;;;;5096810;28;20061;-66
2021/10/11 03:51:36;;;;;;;197.52;80.88;;;10.80;99.90;;;;;;5096625;28;20095;-66
2021/10/11 03:54:02;;;;;;;189.95;77.88;;;10.80;99.90;;;;;;5095691;28;20457;-66
2021/10/11 03:56:27;;;;;;;207.63;80.50;;;10.80;99.90;;;;;;5096259;28;20036;-66
2021/10/11 03:58:53;;;;;;;198.00;77.82;;;10.80;99.90;;;;;;5096741;28;20036;-65
2021/10/11 04:01:18;;;;;;;192.43;76.57;;;10.90;99.90;;;;;;5096724;28;20028;-66
2021/10/11 04:03:44;;;;;;;199.18;76.72;;;10.90;99.90;;;;;;5096384;28;20032;-66
2021/10/11 04:06:11;;;;;;;197.00;77.38;;;10.90;99.90;;;;;;5096379;28;20401;-66
2021/10/11 04:08:39;;;;;;;196.35;74.10;;;10.90;99.90;;;;;;5096541;28;20065;-66
2021/10/11 04:11:11;;;;;;;197.90;76.63;;;10.90;99.90;;;;;;5096560;28;20042;-66
2021/10/11 04:13:37;;;;;;;181.93;70.27;;;10.90;99.90;;;;;;5096284;28;20420;-66
2021/10/11 04:16:04;;;;;;;182.60;69.78;;;11.00;99.90;;;;;;5096424;28;20282;-66
2021/10/11 04:18:29;;;;;;;174.60;70.03;;;10.90;99.90;;;;;;5095870;28;20046;-66
2021/10/11 04:20:55;;;;;;;173.73;66.20;;;11.00;99.90;;;;;;5096067;28;20024;-66
2021/10/11 04:23:21;;;;;;;169.77;66.18;;;11.00;99.90;;;;;;5096250;28;20404;-66
2021/10/11 04:25:46;;;;;;;168.73;64.93;;;10.90;99.90;;;;;;5094740;28;20027;-66
2021/10/11 04:28:15;;;;;;;162.35;65.60;;;11.00;99.90;;;;;;5095739;28;20034;-66
2021/10/11 04:30:41;;;;;;;165.35;64.50;;;10.90;99.90;;;;;;5095380;28;20417;-66
2021/10/11 04:33:06;;;;;;;165.18;64.28;;;11.00;99.90;;;;;;5096120;28;20016;-66
2021/10/11 04:35:32;;;;;;;169.70;65.82;;;10.90;99.90;;;;;;5095480;28;20031;-66
2021/10/11 04:37:57;;;;;;;164.73;64.97;;;10.90;99.90;;;;;;5095688;28;20073;-66
2021/10/11 04:40:23;;;;;;;164.57;63.72;;;10.90;99.90;;;;;;5095904;28;20035;-66
2021/10/11 04:42:49;;;;;;;176.05;65.85;;;10.90;99.90;;;;;;5095374;28;20024;-66
2021/10/11 04:45:14;;;;;;;175.20;64.68;;;10.90;99.90;;;;;;5095554;28;20031;-66
2021/10/11 04:47:40;;;;;;;174.75;64.55;;;10.90;99.90;;;;;;5095808;28;20431;-66
2021/10/11 04:50:06;;;;;;;161.90;64.60;;;10.90;99.90;;;;;;5095131;28;20435;-66
2021/10/11 04:52:32;;;;;;;166.93;61.90;;;10.90;99.90;;;;;;5095755;28;20376;-66
2021/10/11 04:54:58;;;;;;;170.30;62.03;;;10.90;99.90;;;;;;5095408;28;20103;-66
2021/10/11 04:57:24;;;;;;;150.35;60.53;;;10.90;99.90;;;;;;5095318;28;20027;-71
2021/10/11 04:59:49;;;;;;;154.00;60.08;;;11.00;99.90;;;;;;5095274;28;20051;-66
2021/10/11 05:02:15;;;;;;;153.63;58.40;;;11.00;99.90;;;;;;5095219;28;20024;-65
2021/10/11 05:04:40;;;;;;;157.88;59.45;;;10.90;99.90;;;;;;5095185;28;20024;-66
2021/10/11 05:07:06;;;;;;;167.68;61.60;;;11.00;99.90;;;;;;5093584;28;20028;-66
2021/10/11 05:09:31;;;;;;;148.40;59.63;;;11.00;99.90;;;;;;5095253;28;20070;-66
2021/10/11 05:11:58;;;;;;;154.82;60.83;;;11.00;99.90;;;;;;5093879;28;20129;-65
2021/10/11 05:14:23;;;;;;;157.00;60.72;;;10.90;99.90;;;;;;5095002;28;20031;-65
2021/10/11 05:16:49;;;;;;;160.35;62.05;;;11.00;99.90;;;;;;5094665;28;20028;-66
2021/10/11 05:19:15;;;;;;;158.25;60.53;;;11.00;99.90;;;;;;5094871;28;20028;-66
2021/10/11 05:21:40;;;;;;;150.23;60.17;;;11.00;99.90;;;;;;5076602;28;20435;-66
2021/10/11 05:24:06;;;;;;;151.70;60.53;;;11.00;99.90;;;;;;5094850;28;20028;-66
2021/10/11 05:26:31;;;;;;;154.02;61.08;;;11.00;99.90;;;;;;5095087;28;20036;-66
2021/10/11 05:28:58;;;;;;;151.70;61.10;;;11.00;99.90;;;;;;5094379;28;20572;-66
2021/10/11 05:31:24;;;;;;;148.77;58.95;;;11.00;99.90;;;;;;5094653;28;20073;-66
2021/10/11 05:33:50;;;;;;;159.73;60.97;;;11.00;99.90;;;;;;5094904;28;20032;-66
2021/10/11 05:36:16;;;;;;;162.93;62.65;;;11.00;99.90;;;;;;5094319;28;20020;-66
2021/10/11 05:38:42;;;;;;;160.88;61.25;;;11.00;99.90;;;;;;5094267;28;20016;-66
2021/10/11 05:41:07;;;;;;;156.82;57.88;;;11.00;99.90;;;;;;5094553;28;20020;-66
2021/10/11 05:43:33;;;;;;;154.38;59.75;;;11.00;99.90;;;;;;5094334;28;20373;-66
2021/10/11 05:45:58;;;;;;;144.82;56.65;;;11.00;99.90;;;;;;5094603;28;20373;-66
2021/10/11 05:48:24;;;;;;;146.93;56.15;;;11.00;99.90;;;;;;5094505;28;20020;-66
2021/10/11 05:50:49;;;;;;;142.32;53.67;;;11.00;99.90;;;;;;5094284;28;20032;-66
2021/10/11 05:53:15;;;;;;;135.02;53.05;;;11.00;99.90;;;;;;5094020;28;20024;-66
2021/10/11 05:55:40;;;;;;;142.43;54.72;;;11.00;99.90;;;;;;5094562;28;20077;-66
2021/10/11 05:58:06;;;;;;;133.57;54.42;;;11.00;99.90;;;;;;5094526;28;20074;-66
2021/10/11 06:00:31;;;;;;;131.95;52.40;;;11.00;99.90;;;;;;5094151;28;20024;-66
2021/10/11 06:02:57;;;;;;;127.68;51.28;;;11.00;99.90;;;;;;5094335;28;20589;-67
2021/10/11 06:05:22;;;;;;;121.22;50.60;;;11.00;99.90;;;;;;5092975;28;20028;-66
2021/10/11 06:07:48;;;;;;;129.43;51.83;;;11.10;99.90;;;;;;5094638;28;20028;-66
2021/10/11 06:10:14;;;;;;;119.82;47.67;;;11.10;99.90;;;;;;5099590;28;20110;-66
2021/10/11 06:12:40;;;;;;;116.75;47.40;;;11.10;99.90;;;;;;5114310;28;20418;-67
2021/10/11 06:15:06;;;;;;;136.40;50.80;;;11.00;99.90;;;;;;5108984;28;20035;-66
2021/10/11 06:17:32;;;;;;;125.78;49.85;;;11.00;99.90;;;;;;5094182;28;20020;-67
2021/10/11 06:19:58;;;;;;;132.43;52.38;;;11.00;99.90;;;;;;5096974;28;20059;-66
2021/10/11 06:22:23;;;;;;;134.88;54.30;;;11.00;99.90;;;;;;5113908;28;20028;-66
2021/10/11 06:24:49;;;;;;;131.38;51.20;;;11.00;99.90;;;;;;5112255;28;20093;-66
2021/10/11 06:27:14;;;;;;;126.00;52.53;;;11.00;99.90;;;;;;5092221;28;20420;-67
2021/10/11 06:29:40;;;;;;;128.38;54.55;;;11.10;99.90;;;;;;5093163;28;20167;-66
2021/10/11 06:32:06;;;;;;;131.95;52.13;;;11.00;99.90;;;;;;5111533;28;20027;-67
2021/10/11 06:34:32;;;;;;;128.75;52.10;;;11.10;99.90;;;;;;5112610;28;20099;-67
2021/10/11 06:36:57;;;;;;;122.82;53.40;;;11.10;99.90;;;;;;5094956;28;20059;-67
2021/10/11 06:39:23;;;;;;;136.23;53.80;;;11.10;99.90;;;;;;5093470;28;20086;-67
2021/10/11 06:41:48;;;;;;;129.32;53.13;;;11.10;99.90;;;;;;5101967;28;20025;-66
2021/10/11 06:44:14;;;;;;;120.82;51.38;;;11.10;99.90;;;;;;5098038;28;20523;-66
2021/10/11 06:46:39;;;;;;;111.32;47.03;;;11.10;99.90;;;;;;5100294;28;20028;-67
2021/10/11 06:49:05;;;;;;;111.78;47.30;;;11.20;99.90;;;;;;5088611;28;20032;-67
2021/10/11 06:51:30;;;;;;;105.63;43.80;;;11.20;99.90;;;;;;5092357;28;20140;-67
2021/10/11 06:53:56;;;;;;;96.72;42.15;;;11.20;99.90;;;;;;5096245;28;20157;-66
2021/10/11 06:56:21;;;;;;;96.60;40.53;;;11.20;99.90;;;;;;5095620;28;20441;-67
2021/10/11 06:58:47;;;;;;;84.40;38.63;;;11.30;99.90;;;;;;5096831;28;20024;-66
2021/10/11 07:01:13;;;;;;;82.28;35.97;;;11.30;99.90;;;;;;5096795;28;20074;-66
2021/10/11 07:03:38;;;;;;;73.80;33.83;;;11.30;99.90;;;;;;5097126;28;20090;-67
2021/10/11 07:06:12;;;;;;;73.53;33.30;;;11.30;99.90;;;;;;5095893;28;20020;-67
2021/10/11 07:08:38;;;;;;;66.43;29.02;;;11.40;99.90;;;;;;5097046;28;20055;-66
2021/10/11 07:11:04;;;;;;;62.47;29.13;;;11.50;99.90;;;;;;5111607;28;20058;-68
2021/10/11 07:13:30;;;;;;;59.85;27.83;;;11.60;99.90;;;;;;5096538;28;20013;-67
2021/10/11 07:15:58;;;;;;;55.65;26.67;;;11.70;99.90;;;;;;5102655;28;20115;-68
2021/10/11 07:18:23;;;;;;;56.10;26.42;;;11.80;99.90;;;;;;5095388;28;20024;-67
2021/10/11 07:20:49;;;;;;;47.28;24.13;;;11.90;99.90;;;;;;5075371;28;20020;-66
2021/10/11 07:23:14;;;;;;;48.40;23.02;;;12.00;99.90;;;;;;5107729;28;20027;-67
2021/10/11 07:25:41;;;;;;;46.25;21.17;;;12.20;99.90;;;;;;5101689;28;20042;-66
2021/10/11 07:28:08;;;;;;;42.97;21.17;;;12.50;99.90;;;;;;5107845;28;20016;-67
2021/10/11 07:30:33;;;;;;;34.00;18.35;;;12.80;99.90;;;;;;5083390;28;20553;-67
2021/10/11 07:33:00;;;;;;;36.97;17.77;;;12.80;99.90;;;;;;5108626;28;20020;-66
2021/10/11 07:35:27;;;;;;;40.33;18.45;;;12.90;99.90;;;;;;5095570;28;20024;-67
2021/10/11 07:37:52;;;;;;;32.95;16.63;;;12.90;99.90;;;;;;5096424;28;20103;-67
2021/10/11 07:40:18;;;;;;;29.63;15.95;;;12.90;99.90;;;;;;5096130;28;20055;-67
2021/10/11 07:42:44;;;;;;;30.20;15.75;;;12.90;99.90;;;;;;5095970;28;20448;-67
2021/10/11 07:45:09;;;;;;;30.08;16.17;;;12.80;99.90;;;;;;5099415;28;20028;-66
2021/10/11 07:47:35;;;;;;;28.02;14.80;;;12.60;99.90;;;;;;5095366;28;20077;-67
2021/10/11 07:50:00;;;;;;;33.97;15.55;;;12.70;99.90;;;;;;5094954;28;20534;-67
2021/10/11 07:52:26;;;;;;;27.70;13.18;;;12.70;99.90;;;;;;5104338;28;20035;-67
2021/10/11 07:54:51;;;;;;;28.40;13.55;;;12.70;99.90;;;;;;5108196;28;20020;-67
2021/10/11 07:57:17;;;;;;;32.55;14.32;;;12.70;99.90;;;;;;5096053;28;20020;-67
2021/10/11 07:59:43;;;;;;;28.90;13.23;;;12.50;99.90;;;;;;5098812;28;20068;-66
2021/10/11 08:02:08;;;;;;;28.92;13.73;;;12.50;99.90;;;;;;5095295;28;20024;-66
2021/10/11 08:04:34;;;;;;;27.52;11.60;;;12.50;99.90;;;;;;5098379;28;20023;-66
2021/10/11 08:07:00;;;;;;;26.90;12.48;;;12.50;99.90;;;;;;5095311;28;20043;-66
2021/10/11 08:09:26;;;;;;;24.75;11.05;;;12.50;99.90;;;;;;5097008;28;20016;-66
2021/10/11 08:11:51;;;;;;;27.35;11.50;;;12.50;99.90;;;;;;5096825;28;20024;-66
2021/10/11 08:14:17;;;;;;;24.17;11.52;;;12.60;99.90;;;;;;5094466;28;20024;-66
2021/10/11 08:16:42;;;;;;;29.25;11.32;;;12.60;99.90;;;;;;5094714;28;20377;-67
2021/10/11 08:19:09;;;;;;;26.35;10.15;;;12.60;99.90;;;;;;5095790;28;20020;-66
2021/10/11 08:21:34;;;;;;;22.52;10.57;;;12.60;99.90;;;;;;5094821;28;20487;-66
2021/10/11 08:24:01;;;;;;;21.45;9.60;;;12.70;99.90;;;;;;5094002;28;20093;-66
2021/10/11 08:26:27;;;;;;;19.20;8.82;;;12.70;99.90;;;;;;5095565;28;20024;-67
2021/10/11 08:28:52;;;;;;;22.92;8.48;;;12.80;99.90;;;;;;5095954;28;20513;-66
2021/10/11 08:31:18;;;;;;;19.60;8.82;;;12.80;99.90;;;;;;5092319;28;20037;-67
2021/10/11 08:33:44;;;;;;;21.15;8.35;;;12.80;99.90;;;;;;5094325;28;20489;-66
2021/10/11 08:36:14;;;;;;;42.40;17.13;;;12.70;99.90;;;;;;5113391;28;20020;-66
2021/10/11 08:38:40;;;;;;;23.15;8.35;;;12.80;99.90;;;;;;5093521;28;20394;-67
2021/10/11 08:41:07;;;;;;;23.17;7.60;;;12.80;99.90;;;;;;5101234;28;20045;-67
2021/10/11 08:43:36;;;;;;;15.02;7.40;;;12.70;99.90;;;;;;5108479;28;20028;-67
2021/10/11 08:46:02;;;;;;;20.88;6.93;;;12.70;99.90;;;;;;5094587;28;20020;-67
2021/10/11 08:48:29;;;;;;;23.40;7.15;;;12.80;99.90;;;;;;5112872;28;20019;-67
2021/10/11 08:50:55;;;;;;;20.08;6.82;;;13.00;99.90;;;;;;5099898;28;20035;-67
2021/10/11 08:53:21;;;;;;;18.38;6.57;;;13.00;99.90;;;;;;5095853;28;20032;-67
2021/10/11 08:55:47;;;;;;;17.83;6.88;;;13.20;99.90;;;;;;5094673;28;20028;-67
2021/10/11 08:58:12;;;;;;;17.92;8.93;;;13.20;99.90;;;;;;5094967;28;20024;-67
2021/10/11 09:00:39;;;;;;;17.75;6.18;;;13.30;99.90;;;;;;5094427;28;20025;-68
2021/10/11 09:03:06;;;;;;;17.65;5.85;;;13.30;99.90;;;;;;5105389;28;20480;-67
2021/10/11 09:05:36;;;;;;;21.88;6.22;;;13.20;99.90;;;;;;5113207;28;20049;-66
2021/10/11 09:08:10;;;;;;;17.35;5.65;;;13.30;99.90;;;;;;5093902;28;20460;-66
2021/10/11 09:13:39;;;;;;;16.65;4.57;;;13.20;99.90;;;;;;5110976;27;20396;-67
2021/10/11 09:16:10;;;;;;;15.18;4.93;;;13.50;99.90;;;;;;5111570;28;20103;-68
2021/10/11 09:18:38;;;;;;;14.15;4.80;;;13.80;99.90;;;;;;5120691;28;20031;-67
2021/10/11 09:21:04;;;;;;;13.43;4.43;;;14.40;99.90;;;;;;5110800;28;20016;-67
2021/10/11 09:23:30;;;;;;;17.25;4.88;;;14.90;99.90;;;;;;5110933;28;20028;-68
2021/10/11 09:25:57;;;;;;;14.82;4.90;;;14.80;99.90;;;;;;5111321;28;20020;-68
2021/10/11 09:28:25;;;;;;;17.40;4.65;;;14.80;99.90;;;;;;5109677;28;20048;-68
2021/10/11 09:30:51;;;;;;;14.63;3.72;;;14.50;99.90;;;;;;5108913;28;20103;-68
2021/10/11 09:33:20;;;;;;;14.27;4.07;;;14.20;99.90;;;;;;5110715;28;20111;-68
2021/10/11 09:35:47;;;;;;;17.85;4.65;;;14.30;99.90;;;;;;5109310;28;20051;-67
2021/10/11 09:38:22;;;;;;;12.40;4.03;;;14.30;99.90;;;;;;5109645;28;20078;-67
2021/10/11 09:40:51;;;;;;;16.35;4.18;;;14.20;99.90;;;;;;5110183;28;20028;-67
2021/10/11 09:43:20;;;;;;;16.15;4.15;;;14.30;99.90;;;;;;5111005;28;20024;-68
2021/10/11 09:45:46;;;;;;;15.68;3.95;;;14.10;99.90;;;;;;5111100;28;20103;-67
2021/10/11 09:48:12;;;;;;;21.38;4.63;;;14.40;99.90;;;;;;5110494;28;20044;-67
2021/10/11 09:50:38;;;;;;;14.55;3.92;;;14.30;99.90;;;;;;5110051;28;20081;-67
2021/10/11 09:53:06;;;;;;;14.57;3.72;;;14.50;99.90;;;;;;5109620;28;20362;-67
2021/10/11 09:55:34;;;;;;;12.57;3.40;;;15.30;99.90;;;;;;5109206;28;20035;-68
2021/10/11 09:58:00;;;;;;;13.95;4.07;;;15.40;99.90;;;;;;5110895;28;20016;-67
2021/10/11 10:00:26;;;;;;;11.43;3.47;;;15.60;99.90;;;;;;5110117;28;20028;-67
2021/10/11 10:02:54;;;;;;;15.77;4.20;;;16.30;99.90;;;;;;5108627;28;20031;-67
2021/10/11 10:05:27;;;;;;;14.52;3.33;;;17.10;99.90;;;;;;5110295;28;20073;-67
2021/10/11 10:07:56;;;;;;;16.27;3.33;;;17.50;99.90;;;;;;5109834;28;20410;-67
2021/10/11 10:10:24;;;;;;;13.60;3.08;;;17.30;99.90;;;;;;5109578;28;20049;-68
2021/10/11 10:12:51;;;;;;;12.95;3.15;;;17.10;99.90;;;;;;5095180;28;20067;-68
2021/10/11 10:15:35;;;;;;;14.30;3.13;;;17.10;99.90;;;;;;5110120;28;20020;-68
2021/10/11 10:18:08;;;;;;;13.70;3.15;;;17.30;99.90;;;;;;5089588;28;20470;-68
2021/10/11 10:20:36;;;;;;;11.15;2.75;;;17.70;99.90;;;;;;5091423;28;20105;-67
2021/10/11 10:23:03;;;;;;;12.88;3.22;;;18.00;99.90;;;;;;5105275;28;20032;-68
2021/10/11 10:25:29;;;;;;;20.27;3.58;;;17.80;99.90;;;;;;5095752;28;20055;-67
2021/10/11 10:28:09;;;;;;;18.73;3.30;;;18.10;99.90;;;;;;5095823;28;20055;-67
2021/10/11 10:30:35;;;;;;;11.88;3.58;;;18.50;99.90;;;;;;5089185;28;20094;-67
2021/10/11 10:33:03;;;;;;;12.57;2.78;;;18.30;99.90;;;;;;5094509;28;20438;-67
2021/10/11 10:35:31;;;;;;;14.15;3.38;;;17.80;99.90;;;;;;5095897;28;20024;-66
2021/10/11 10:37:58;;;;;;;18.85;3.63;;;17.60;99.90;;;;;;5095881;28;20375;-67
2021/10/11 10:40:27;;;;;;;13.02;3.00;;;17.40;99.90;;;;;;5096094;28;20416;-68
2021/10/11 10:43:04;;;;;;;16.60;3.20;;;17.30;99.90;;;;;;5095971;28;20020;-67
2021/10/11 10:45:34;;;;;;;14.77;3.63;;;17.10;99.90;;;;;;5094810;28;20085;-67
2021/10/11 10:48:00;;;;;;;18.10;3.08;;;17.60;99.90;;;;;;5095795;28;20104;-68
2021/10/11 10:50:29;;;;;;;13.32;3.35;;;18.20;99.90;;;;;;5095676;28;20119;-68
2021/10/11 10:52:58;;;;;;;15.85;3.17;;;18.20;99.90;;;;;;5095472;28;20020;-67
2021/10/11 10:55:25;;;;;;;15.43;3.40;;;18.10;99.90;;;;;;5095501;28;20461;-66
2021/10/11 10:58:02;;;;;;;11.90;2.92;;;17.70;99.90;;;;;;5095274;28;20130;-66
2021/10/11 11:00:28;;;;;;;16.05;3.53;;;17.20;99.90;;;;;;5094971;28;20089;-67
2021/10/11 11:02:54;;;;;;;16.95;2.85;;;17.80;99.90;;;;;;5106877;28;20503;-67
2021/10/11 11:05:22;;;;;;;16.27;2.67;;;17.50;99.90;;;;;;5095506;28;20082;-67
2021/10/11 11:07:52;;;;;;;12.65;3.08;;;17.30;99.90;;;;;;5094313;28;20473;-67
2021/10/11 11:10:20;;;;;;;17.75;2.70;;;16.80;99.90;;;;;;5095504;28;20078;-67
2021/10/11 11:12:53;;;;;;;14.43;2.90;;;16.60;99.90;;;;;;5105095;28;20040;-68
2021/10/11 11:15:37;;;;;;;20.08;3.83;;;17.00;99.90;;;;;;5101212;28;20028;-67
2021/10/11 11:18:09;;;;;;;12.48;2.67;;;17.40;99.90;;;;;;5097505;28;20051;-67
2021/10/11 11:20:37;;;;;;;14.52;2.95;;;16.90;99.90;;;;;;5098688;28;20517;-67
2021/10/11 11:23:07;;;;;;;18.48;3.70;;;16.40;99.90;;;;;;5095832;28;20077;-67
2021/10/11 11:25:38;;;;;;;13.50;3.20;;;15.80;99.90;;;;;;5095199;28;20391;-66
2021/10/11 11:28:07;;;;;;;14.20;2.80;;;15.60;99.90;;;;;;5079404;28;20059;-67
2021/10/11 11:30:33;;;;;;;14.25;2.40;;;15.60;99.90;;;;;;5075705;28;20115;-67
2021/10/11 11:33:05;;;;;;;13.50;3.30;;;15.90;99.90;;;;;;5094932;28;20028;-68
2021/10/11 11:35:35;;;;;;;15.90;3.17;;;16.20;99.90;;;;;;5092620;28;20091;-66
2021/10/11 11:38:04;;;;;;;13.77;3.17;;;16.30;99.90;;;;;;5094824;28;20031;-66
2021/10/11 11:40:34;;;;;;;17.48;2.85;;;16.50;99.90;;;;;;5094636;28;20031;-67
2021/10/11 11:43:00;;;;;;;13.73;3.25;;;16.40;99.90;;;;;;5094344;28;20029;-67
2021/10/11 11:45:44;;;;;;;12.63;3.33;;;16.30;99.90;;;;;;5092690;28;20032;-67
2021/10/11 11:48:10;;;;;;;;;;;16.20;99.90;;;;;;5093991;28;20363;-66
2021/10/11 11:50:37;;;;;;;11.23;2.75;;;16.40;99.90;;;;;;5094302;28;19907;-67
2021/10/11 11:53:06;;;;;;;13.88;2.60;;;16.20;99.90;;;;;;5093474;28;20032;-67
2021/10/11 11:55:32;;;;;;;9.95;1.85;;;16.10;99.90;;;;;;5094124;28;20024;-67
2021/10/11 11:57:59;;;;;;;16.40;2.60;;;16.10;99.90;;;;;;5094383;28;20023;-67
2021/10/11 12:00:26;;;;;;;9.27;2.67;;;16.10;99.90;;;;;;5092580;28;20107;-66
2021/10/11 12:02:53;;;;;;;15.23;2.70;;;16.10;99.90;;;;;;5094585;28;20016;-68
2021/10/11 12:05:19;;;;;;;9.80;2.60;;;16.00;99.90;;;;;;5094022;28;20420;-67
2021/10/11 12:07:46;;;;;;;12.85;2.38;;;15.90;99.90;;;;;;5094523;28;20031;-66
2021/10/11 12:10:16;;;;;;;16.70;2.53;;;15.70;99.90;;;;;;5093672;28;20020;-67
2021/10/11 12:12:42;;;;;;;11.85;2.42;;;16.00;99.90;;;;;;5093476;28;20044;-67
2021/10/11 12:15:17;;;;;;;9.48;2.03;;;16.50;99.90;;;;;;5093926;28;20031;-68
2021/10/11 12:17:43;;;;;;;8.88;2.30;;;16.70;99.90;;;;;;5094010;28;20016;-67
2021/10/11 12:20:09;;;;;;;9.50;2.40;;;16.80;99.90;;;;;;5098466;28;20518;-66
2021/10/11 12:22:35;;;;;;;11.48;2.80;;;17.00;99.90;;;;;;5093879;28;20028;-66
2021/10/11 12:25:03;;;;;;;16.77;2.38;;;17.30;99.90;;;;;;5093475;28;20031;-67